sensor_id;sensor_type;location;lat;lon;timestamp;P1;durP1;ratioP1;P2;durP2;ratioP2
23470;SDS011;11908;50.806;4.424;2022-11-25T00:00:50;19.38;;;3.60;;
23470;SDS011;11908;50.806;4.424;2022-11-25T00:03:15;12.82;;;3.03;;
23470;SDS011;11908;50.806;4.424;2022-11-25T00:05:41;19.10;;;3.17;;
23470;SDS011;11908;50.806;4.424;2022-11-25T00:08:07;18.83;;;3.30;;
23470;SDS011;11908;50.806;4.424;2022-11-25T00:10:32;27.15;;;4.20;;
23470;SDS011;11908;50.806;4.424;2022-11-25T00:12:58;14.85;;;2.80;;
23470;SDS011;11908;50.806;4.424;2022-11-25T00:15:23;17.23;;;3.60;;
23470;SDS011;11908;50.806;4.424;2022-11-25T00:17:50;19.80;;;4.07;;
23470;SDS011;11908;50.806;4.424;2022-11-25T00:20:16;19.13;;;3.63;;
23470;SDS011;11908;50.806;4.424;2022-11-25T00:22:44;16.65;;;3.88;;
23470;SDS011;11908;50.806;4.424;2022-11-25T00:25:10;13.85;;;3.55;;
23470;SDS011;11908;50.806;4.424;2022-11-25T00:27:36;19.10;;;3.15;;
23470;SDS011;11908;50.806;4.424;2022-11-25T00:30:02;14.70;;;3.65;;
23470;SDS011;11908;50.806;4.424;2022-11-25T00:32:28;18.35;;;4.30;;
23470;SDS011;11908;50.806;4.424;2022-11-25T00:34:54;21.65;;;3.97;;
23470;SDS011;11908;50.806;4.424;2022-11-25T00:37:19;20.88;;;3.70;;
23470;SDS011;11908;50.806;4.424;2022-11-25T00:39:45;15.32;;;4.20;;
23470;SDS011;11908;50.806;4.424;2022-11-25T00:42:11;22.25;;;5.13;;
23470;SDS011;11908;50.806;4.424;2022-11-25T00:44:55;16.73;;;3.42;;
23470;SDS011;11908;50.806;4.424;2022-11-25T00:47:21;19.73;;;3.65;;
23470;SDS011;11908;50.806;4.424;2022-11-25T00:49:47;17.08;;;3.92;;
23470;SDS011;11908;50.806;4.424;2022-11-25T00:52:16;18.48;;;3.63;;
23470;SDS011;11908;50.806;4.424;2022-11-25T00:54:43;23.80;;;4.10;;
23470;SDS011;11908;50.806;4.424;2022-11-25T00:57:10;15.07;;;3.33;;
23470;SDS011;11908;50.806;4.424;2022-11-25T00:59:36;10.80;;;1.98;;
23470;SDS011;11908;50.806;4.424;2022-11-25T01:02:02;6.57;;;1.55;;
23470;SDS011;11908;50.806;4.424;2022-11-25T01:04:28;9.90;;;1.88;;
23470;SDS011;11908;50.806;4.424;2022-11-25T01:06:56;10.48;;;1.88;;
23470;SDS011;11908;50.806;4.424;2022-11-25T01:09:24;9.95;;;1.67;;
23470;SDS011;11908;50.806;4.424;2022-11-25T01:11:50;10.43;;;1.60;;
23470;SDS011;11908;50.806;4.424;2022-11-25T01:14:17;8.43;;;1.55;;
23470;SDS011;11908;50.806;4.424;2022-11-25T01:16:43;7.32;;;1.20;;
23470;SDS011;11908;50.806;4.424;2022-11-25T01:19:09;6.70;;;1.42;;
23470;SDS011;11908;50.806;4.424;2022-11-25T01:21:36;4.82;;;1.10;;
23470;SDS011;11908;50.806;4.424;2022-11-25T01:24:03;6.72;;;1.30;;
23470;SDS011;11908;50.806;4.424;2022-11-25T01:26:29;7.00;;;1.20;;
23470;SDS011;11908;50.806;4.424;2022-11-25T01:28:56;3.03;;;1.00;;
23470;SDS011;11908;50.806;4.424;2022-11-25T01:31:24;7.32;;;0.80;;
23470;SDS011;11908;50.806;4.424;2022-11-25T01:34:03;3.20;;;1.00;;
23470;SDS011;11908;50.806;4.424;2022-11-25T01:36:49;1.50;;;0.80;;
23470;SDS011;11908;50.806;4.424;2022-11-25T01:39:16;4.70;;;1.27;;
23470;SDS011;11908;50.806;4.424;2022-11-25T01:41:46;4.75;;;1.10;;
23470;SDS011;11908;50.806;4.424;2022-11-25T01:44:20;3.80;;;1.00;;
23470;SDS011;11908;50.806;4.424;2022-11-25T01:46:57;4.65;;;1.27;;
23470;SDS011;11908;50.806;4.424;2022-11-25T01:49:43;9.75;;;1.95;;
23470;SDS011;11908;50.806;4.424;2022-11-25T01:54:45;2.30;;;1.15;;
23470;SDS011;11908;50.806;4.424;2022-11-25T01:57:25;4.10;;;1.20;;
23470;SDS011;11908;50.806;4.424;2022-11-25T01:59:55;4.28;;;1.10;;
23470;SDS011;11908;50.806;4.424;2022-11-25T02:02:23;6.97;;;1.52;;
23470;SDS011;11908;50.806;4.424;2022-11-25T02:04:49;5.80;;;1.30;;
23470;SDS011;11908;50.806;4.424;2022-11-25T02:07:19;8.23;;;1.30;;
23470;SDS011;11908;50.806;4.424;2022-11-25T02:10:00;4.35;;;1.02;;
23470;SDS011;11908;50.806;4.424;2022-11-25T02:12:29;5.18;;;1.13;;
23470;SDS011;11908;50.806;4.424;2022-11-25T02:14:56;3.47;;;1.08;;
23470;SDS011;11908;50.806;4.424;2022-11-25T02:17:23;3.10;;;0.80;;
23470;SDS011;11908;50.806;4.424;2022-11-25T02:22:22;3.42;;;1.00;;
23470;SDS011;11908;50.806;4.424;2022-11-25T02:24:57;3.78;;;0.93;;
23470;SDS011;11908;50.806;4.424;2022-11-25T02:27:46;5.13;;;1.30;;
23470;SDS011;11908;50.806;4.424;2022-11-25T02:30:16;2.15;;;0.77;;
23470;SDS011;11908;50.806;4.424;2022-11-25T02:32:43;6.32;;;1.10;;
23470;SDS011;11908;50.806;4.424;2022-11-25T02:35:21;5.05;;;1.10;;
23470;SDS011;11908;50.806;4.424;2022-11-25T02:37:50;4.70;;;1.10;;
23470;SDS011;11908;50.806;4.424;2022-11-25T02:40:18;5.05;;;1.10;;
23470;SDS011;11908;50.806;4.424;2022-11-25T02:42:44;3.33;;;0.80;;
23470;SDS011;11908;50.806;4.424;2022-11-25T02:45:13;2.05;;;0.63;;
23470;SDS011;11908;50.806;4.424;2022-11-25T02:47:41;3.38;;;1.00;;
23470;SDS011;11908;50.806;4.424;2022-11-25T02:50:07;3.10;;;1.00;;
23470;SDS011;11908;50.806;4.424;2022-11-25T02:52:33;3.28;;;1.00;;
23470;SDS011;11908;50.806;4.424;2022-11-25T02:54:59;7.82;;;2.10;;
23470;SDS011;11908;50.806;4.424;2022-11-25T02:57:24;4.25;;;1.00;;
23470;SDS011;11908;50.806;4.424;2022-11-25T02:59:50;5.82;;;1.67;;
23470;SDS011;11908;50.806;4.424;2022-11-25T03:02:15;4.43;;;1.40;;
23470;SDS011;11908;50.806;4.424;2022-11-25T03:04:41;4.82;;;1.00;;
23470;SDS011;11908;50.806;4.424;2022-11-25T03:07:07;10.95;;;1.70;;
23470;SDS011;11908;50.806;4.424;2022-11-25T03:09:32;5.40;;;1.50;;
23470;SDS011;11908;50.806;4.424;2022-11-25T03:11:58;8.57;;;1.33;;
23470;SDS011;11908;50.806;4.424;2022-11-25T03:14:42;5.55;;;1.70;;
23470;SDS011;11908;50.806;4.424;2022-11-25T03:17:08;4.63;;;1.65;;
23470;SDS011;11908;50.806;4.424;2022-11-25T03:19:34;10.00;;;1.67;;
23470;SDS011;11908;50.806;4.424;2022-11-25T03:21:59;6.88;;;1.67;;
23470;SDS011;11908;50.806;4.424;2022-11-25T03:24:25;8.68;;;2.00;;
23470;SDS011;11908;50.806;4.424;2022-11-25T03:26:51;10.13;;;1.92;;
23470;SDS011;11908;50.806;4.424;2022-11-25T03:29:16;13.68;;;2.78;;
23470;SDS011;11908;50.806;4.424;2022-11-25T03:31:42;11.88;;;2.28;;
23470;SDS011;11908;50.806;4.424;2022-11-25T03:34:07;8.80;;;2.40;;
23470;SDS011;11908;50.806;4.424;2022-11-25T03:36:33;16.30;;;2.72;;
23470;SDS011;11908;50.806;4.424;2022-11-25T03:38:59;12.52;;;2.55;;
23470;SDS011;11908;50.806;4.424;2022-11-25T03:41:25;15.85;;;2.60;;
23470;SDS011;11908;50.806;4.424;2022-11-25T03:43:50;8.85;;;2.63;;
23470;SDS011;11908;50.806;4.424;2022-11-25T03:46:16;16.27;;;2.95;;
23470;SDS011;11908;50.806;4.424;2022-11-25T03:48:42;13.23;;;2.75;;
23470;SDS011;11908;50.806;4.424;2022-11-25T03:51:08;13.88;;;3.13;;
23470;SDS011;11908;50.806;4.424;2022-11-25T03:53:33;17.70;;;4.75;;
23470;SDS011;11908;50.806;4.424;2022-11-25T03:55:59;21.02;;;6.20;;
23470;SDS011;11908;50.806;4.424;2022-11-25T03:58:25;20.42;;;5.32;;
23470;SDS011;11908;50.806;4.424;2022-11-25T04:00:53;16.35;;;4.00;;
23470;SDS011;11908;50.806;4.424;2022-11-25T04:03:23;16.17;;;3.67;;
23470;SDS011;11908;50.806;4.424;2022-11-25T04:05:49;13.80;;;2.95;;
23470;SDS011;11908;50.806;4.424;2022-11-25T04:08:14;14.88;;;3.25;;
23470;SDS011;11908;50.806;4.424;2022-11-25T04:10:40;13.23;;;2.78;;
23470;SDS011;11908;50.806;4.424;2022-11-25T04:13:06;12.60;;;2.70;;
23470;SDS011;11908;50.806;4.424;2022-11-25T04:15:31;11.60;;;2.60;;
23470;SDS011;11908;50.806;4.424;2022-11-25T04:17:57;15.55;;;2.83;;
23470;SDS011;11908;50.806;4.424;2022-11-25T04:20:22;16.65;;;3.70;;
23470;SDS011;11908;50.806;4.424;2022-11-25T04:22:48;15.65;;;3.05;;
23470;SDS011;11908;50.806;4.424;2022-11-25T04:25:14;14.52;;;2.70;;
23470;SDS011;11908;50.806;4.424;2022-11-25T04:27:40;13.98;;;3.30;;
23470;SDS011;11908;50.806;4.424;2022-11-25T04:30:05;14.65;;;2.80;;
23470;SDS011;11908;50.806;4.424;2022-11-25T04:32:32;9.88;;;2.85;;
23470;SDS011;11908;50.806;4.424;2022-11-25T04:34:57;9.18;;;2.47;;
23470;SDS011;11908;50.806;4.424;2022-11-25T04:37:23;12.38;;;2.83;;
23470;SDS011;11908;50.806;4.424;2022-11-25T04:39:49;12.57;;;3.78;;
23470;SDS011;11908;50.806;4.424;2022-11-25T04:42:15;12.50;;;3.10;;
23470;SDS011;11908;50.806;4.424;2022-11-25T04:44:55;15.85;;;2.92;;
23470;SDS011;11908;50.806;4.424;2022-11-25T04:47:21;16.83;;;3.03;;
23470;SDS011;11908;50.806;4.424;2022-11-25T04:49:47;18.17;;;2.83;;
23470;SDS011;11908;50.806;4.424;2022-11-25T04:52:13;19.13;;;3.42;;
23470;SDS011;11908;50.806;4.424;2022-11-25T04:54:38;16.45;;;3.28;;
23470;SDS011;11908;50.806;4.424;2022-11-25T04:57:04;16.65;;;2.83;;
23470;SDS011;11908;50.806;4.424;2022-11-25T04:59:30;12.75;;;2.58;;
23470;SDS011;11908;50.806;4.424;2022-11-25T05:02:11;14.80;;;2.88;;
23470;SDS011;11908;50.806;4.424;2022-11-25T05:04:39;17.70;;;2.97;;
23470;SDS011;11908;50.806;4.424;2022-11-25T05:07:06;13.27;;;2.42;;
23470;SDS011;11908;50.806;4.424;2022-11-25T05:09:32;15.80;;;3.60;;
23470;SDS011;11908;50.806;4.424;2022-11-25T05:11:58;11.40;;;2.50;;
23470;SDS011;11908;50.806;4.424;2022-11-25T05:14:23;11.35;;;2.20;;
23470;SDS011;11908;50.806;4.424;2022-11-25T05:16:50;9.43;;;2.63;;
23470;SDS011;11908;50.806;4.424;2022-11-25T05:19:16;19.70;;;3.28;;
23470;SDS011;11908;50.806;4.424;2022-11-25T05:21:42;15.45;;;3.00;;
23470;SDS011;11908;50.806;4.424;2022-11-25T05:24:07;11.90;;;2.53;;
23470;SDS011;11908;50.806;4.424;2022-11-25T05:26:33;18.02;;;2.80;;
23470;SDS011;11908;50.806;4.424;2022-11-25T05:28:59;7.95;;;2.38;;
23470;SDS011;11908;50.806;4.424;2022-11-25T05:31:24;18.10;;;2.88;;
23470;SDS011;11908;50.806;4.424;2022-11-25T05:33:50;12.48;;;2.38;;
23470;SDS011;11908;50.806;4.424;2022-11-25T05:36:16;12.48;;;2.50;;
23470;SDS011;11908;50.806;4.424;2022-11-25T05:38:41;10.77;;;2.10;;
23470;SDS011;11908;50.806;4.424;2022-11-25T05:41:07;10.50;;;2.50;;
23470;SDS011;11908;50.806;4.424;2022-11-25T05:43:35;15.30;;;2.78;;
23470;SDS011;11908;50.806;4.424;2022-11-25T05:46:04;9.65;;;2.25;;
23470;SDS011;11908;50.806;4.424;2022-11-25T05:48:31;6.63;;;1.83;;
23470;SDS011;11908;50.806;4.424;2022-11-25T05:51:02;14.45;;;3.38;;
23470;SDS011;11908;50.806;4.424;2022-11-25T05:53:29;13.93;;;2.92;;
23470;SDS011;11908;50.806;4.424;2022-11-25T05:55:59;15.57;;;2.80;;
23470;SDS011;11908;50.806;4.424;2022-11-25T05:58:27;16.45;;;2.90;;
23470;SDS011;11908;50.806;4.424;2022-11-25T06:00:53;13.35;;;2.92;;
23470;SDS011;11908;50.806;4.424;2022-11-25T06:03:22;8.70;;;2.47;;
23470;SDS011;11908;50.806;4.424;2022-11-25T06:05:51;10.07;;;2.38;;
23470;SDS011;11908;50.806;4.424;2022-11-25T06:08:19;16.52;;;2.55;;
23470;SDS011;11908;50.806;4.424;2022-11-25T06:10:44;12.13;;;3.00;;
23470;SDS011;11908;50.806;4.424;2022-11-25T06:13:10;10.02;;;2.50;;
23470;SDS011;11908;50.806;4.424;2022-11-25T06:15:39;11.98;;;2.58;;
23470;SDS011;11908;50.806;4.424;2022-11-25T06:18:06;12.98;;;2.55;;
23470;SDS011;11908;50.806;4.424;2022-11-25T06:20:32;17.48;;;3.00;;
23470;SDS011;11908;50.806;4.424;2022-11-25T06:22:58;17.95;;;3.25;;
23470;SDS011;11908;50.806;4.424;2022-11-25T06:25:24;11.82;;;2.92;;
23470;SDS011;11908;50.806;4.424;2022-11-25T06:27:50;10.25;;;2.65;;
23470;SDS011;11908;50.806;4.424;2022-11-25T06:30:16;14.45;;;2.80;;
23470;SDS011;11908;50.806;4.424;2022-11-25T06:32:42;18.20;;;3.88;;
23470;SDS011;11908;50.806;4.424;2022-11-25T06:35:08;16.13;;;3.10;;
23470;SDS011;11908;50.806;4.424;2022-11-25T06:37:34;15.35;;;3.35;;
23470;SDS011;11908;50.806;4.424;2022-11-25T06:40:00;13.38;;;3.67;;
23470;SDS011;11908;50.806;4.424;2022-11-25T06:42:26;14.70;;;2.75;;
23470;SDS011;11908;50.806;4.424;2022-11-25T06:44:51;11.82;;;3.40;;
23470;SDS011;11908;50.806;4.424;2022-11-25T06:47:17;13.32;;;3.00;;
23470;SDS011;11908;50.806;4.424;2022-11-25T06:49:43;10.80;;;2.90;;
23470;SDS011;11908;50.806;4.424;2022-11-25T06:52:08;17.70;;;3.00;;
23470;SDS011;11908;50.806;4.424;2022-11-25T06:54:34;18.13;;;3.40;;
23470;SDS011;11908;50.806;4.424;2022-11-25T06:57:05;13.00;;;3.20;;
23470;SDS011;11908;50.806;4.424;2022-11-25T06:59:31;12.85;;;3.08;;
23470;SDS011;11908;50.806;4.424;2022-11-25T07:01:57;17.85;;;4.22;;
23470;SDS011;11908;50.806;4.424;2022-11-25T07:04:22;19.92;;;5.20;;
23470;SDS011;11908;50.806;4.424;2022-11-25T07:06:48;21.25;;;4.60;;
23470;SDS011;11908;50.806;4.424;2022-11-25T07:09:14;20.48;;;4.20;;
23470;SDS011;11908;50.806;4.424;2022-11-25T07:11:40;21.90;;;4.28;;
23470;SDS011;11908;50.806;4.424;2022-11-25T07:14:07;17.85;;;4.43;;
23470;SDS011;11908;50.806;4.424;2022-11-25T07:16:36;19.70;;;3.78;;
23470;SDS011;11908;50.806;4.424;2022-11-25T07:19:03;21.20;;;4.10;;
23470;SDS011;11908;50.806;4.424;2022-11-25T07:21:29;21.75;;;4.07;;
23470;SDS011;11908;50.806;4.424;2022-11-25T07:23:57;17.17;;;5.15;;
23470;SDS011;11908;50.806;4.424;2022-11-25T07:26:25;15.50;;;3.70;;
23470;SDS011;11908;50.806;4.424;2022-11-25T07:28:53;19.83;;;4.13;;
23470;SDS011;11908;50.806;4.424;2022-11-25T07:31:21;20.67;;;4.22;;
23470;SDS011;11908;50.806;4.424;2022-11-25T07:33:51;16.50;;;3.35;;
23470;SDS011;11908;50.806;4.424;2022-11-25T07:36:18;16.42;;;3.65;;
23470;SDS011;11908;50.806;4.424;2022-11-25T07:38:44;18.73;;;4.22;;
23470;SDS011;11908;50.806;4.424;2022-11-25T07:41:13;18.13;;;4.53;;
23470;SDS011;11908;50.806;4.424;2022-11-25T07:43:48;23.17;;;4.72;;
23470;SDS011;11908;50.806;4.424;2022-11-25T07:48:46;19.98;;;4.63;;
23470;SDS011;11908;50.806;4.424;2022-11-25T07:51:19;20.80;;;6.13;;
23470;SDS011;11908;50.806;4.424;2022-11-25T07:53:47;25.25;;;5.38;;
23470;SDS011;11908;50.806;4.424;2022-11-25T07:56:14;24.67;;;4.15;;
23470;SDS011;11908;50.806;4.424;2022-11-25T07:58:41;24.05;;;4.00;;
23470;SDS011;11908;50.806;4.424;2022-11-25T08:01:07;26.58;;;4.47;;
23470;SDS011;11908;50.806;4.424;2022-11-25T08:03:35;18.92;;;4.10;;
23470;SDS011;11908;50.806;4.424;2022-11-25T08:06:03;25.63;;;4.63;;
23470;SDS011;11908;50.806;4.424;2022-11-25T08:08:31;22.15;;;4.47;;
23470;SDS011;11908;50.806;4.424;2022-11-25T08:10:57;21.63;;;4.85;;
23470;SDS011;11908;50.806;4.424;2022-11-25T08:13:23;22.00;;;4.20;;
23470;SDS011;11908;50.806;4.424;2022-11-25T08:15:49;24.58;;;4.63;;
23470;SDS011;11908;50.806;4.424;2022-11-25T08:18:16;23.80;;;4.40;;
23470;SDS011;11908;50.806;4.424;2022-11-25T08:20:41;22.90;;;3.95;;
23470;SDS011;11908;50.806;4.424;2022-11-25T08:23:07;16.85;;;4.15;;
23470;SDS011;11908;50.806;4.424;2022-11-25T08:25:39;23.83;;;4.47;;
23470;SDS011;11908;50.806;4.424;2022-11-25T08:28:05;27.55;;;5.28;;
23470;SDS011;11908;50.806;4.424;2022-11-25T08:30:31;22.95;;;4.60;;
23470;SDS011;11908;50.806;4.424;2022-11-25T08:32:56;21.38;;;4.90;;
23470;SDS011;11908;50.806;4.424;2022-11-25T08:35:22;25.98;;;4.93;;
23470;SDS011;11908;50.806;4.424;2022-11-25T08:37:48;23.13;;;6.55;;
23470;SDS011;11908;50.806;4.424;2022-11-25T08:40:14;21.13;;;4.93;;
23470;SDS011;11908;50.806;4.424;2022-11-25T08:42:40;26.48;;;5.20;;
23470;SDS011;11908;50.806;4.424;2022-11-25T08:45:06;18.65;;;4.93;;
23470;SDS011;11908;50.806;4.424;2022-11-25T08:47:32;27.63;;;5.78;;
23470;SDS011;11908;50.806;4.424;2022-11-25T08:49:58;23.58;;;5.55;;
23470;SDS011;11908;50.806;4.424;2022-11-25T08:52:24;19.33;;;4.68;;
23470;SDS011;11908;50.806;4.424;2022-11-25T08:54:50;17.73;;;4.50;;
23470;SDS011;11908;50.806;4.424;2022-11-25T08:57:16;25.65;;;4.43;;
23470;SDS011;11908;50.806;4.424;2022-11-25T08:59:42;15.60;;;4.03;;
23470;SDS011;11908;50.806;4.424;2022-11-25T09:02:07;13.90;;;4.15;;
23470;SDS011;11908;50.806;4.424;2022-11-25T09:04:36;12.07;;;3.85;;
23470;SDS011;11908;50.806;4.424;2022-11-25T09:07:02;14.48;;;3.53;;
23470;SDS011;11908;50.806;4.424;2022-11-25T09:09:29;20.00;;;4.68;;
23470;SDS011;11908;50.806;4.424;2022-11-25T09:11:55;16.00;;;4.20;;
23470;SDS011;11908;50.806;4.424;2022-11-25T09:14:20;17.80;;;3.38;;
23470;SDS011;11908;50.806;4.424;2022-11-25T09:16:46;13.27;;;3.28;;
23470;SDS011;11908;50.806;4.424;2022-11-25T09:19:12;10.32;;;2.72;;
23470;SDS011;11908;50.806;4.424;2022-11-25T09:21:37;12.98;;;3.08;;
23470;SDS011;11908;50.806;4.424;2022-11-25T09:24:03;7.25;;;2.92;;
23470;SDS011;11908;50.806;4.424;2022-11-25T09:26:30;13.88;;;2.70;;
23470;SDS011;11908;50.806;4.424;2022-11-25T09:29:03;18.48;;;3.90;;
23470;SDS011;11908;50.806;4.424;2022-11-25T09:31:29;10.10;;;2.97;;
23470;SDS011;11908;50.806;4.424;2022-11-25T09:33:55;13.15;;;3.22;;
23470;SDS011;11908;50.806;4.424;2022-11-25T09:36:21;12.70;;;2.70;;
23470;SDS011;11908;50.806;4.424;2022-11-25T09:38:47;12.27;;;2.67;;
23470;SDS011;11908;50.806;4.424;2022-11-25T09:47:28;11.20;;;2.75;;
23470;SDS011;11908;50.806;4.424;2022-11-25T09:55:47;9.88;;;2.47;;
23470;SDS011;11908;50.806;4.424;2022-11-25T10:00:56;7.57;;;2.20;;
23470;SDS011;11908;50.806;4.424;2022-11-25T10:08:49;9.77;;;2.17;;
23470;SDS011;11908;50.806;4.424;2022-11-25T10:13:51;7.45;;;2.25;;
23470;SDS011;11908;50.806;4.424;2022-11-25T10:16:27;8.30;;;2.72;;
23470;SDS011;11908;50.806;4.424;2022-11-25T10:18:58;13.18;;;2.40;;
23470;SDS011;11908;50.806;4.424;2022-11-25T10:21:44;9.02;;;2.40;;
23470;SDS011;11908;50.806;4.424;2022-11-25T10:24:14;10.07;;;2.30;;
23470;SDS011;11908;50.806;4.424;2022-11-25T10:26:43;7.78;;;2.08;;
23470;SDS011;11908;50.806;4.424;2022-11-25T10:31:38;5.55;;;1.40;;
23470;SDS011;11908;50.806;4.424;2022-11-25T10:34:49;4.97;;;1.60;;
23470;SDS011;11908;50.806;4.424;2022-11-25T10:36:58;6.65;;;1.92;;
23470;SDS011;11908;50.806;4.424;2022-11-25T10:39:26;8.02;;;1.50;;
23470;SDS011;11908;50.806;4.424;2022-11-25T10:44:26;3.67;;;1.38;;
23470;SDS011;11908;50.806;4.424;2022-11-25T10:55:28;7.10;;;2.00;;
23470;SDS011;11908;50.806;4.424;2022-11-25T10:57:55;5.57;;;1.83;;
23470;SDS011;11908;50.806;4.424;2022-11-25T11:00:26;7.63;;;2.15;;
23470;SDS011;11908;50.806;4.424;2022-11-25T11:02:57;8.32;;;2.05;;
23470;SDS011;11908;50.806;4.424;2022-11-25T11:05:26;9.20;;;1.90;;
23470;SDS011;11908;50.806;4.424;2022-11-25T11:10:37;9.93;;;2.50;;
23470;SDS011;11908;50.806;4.424;2022-11-25T11:13:05;6.57;;;2.15;;
23470;SDS011;11908;50.806;4.424;2022-11-25T11:15:50;7.70;;;2.42;;
23470;SDS011;11908;50.806;4.424;2022-11-25T11:18:20;7.45;;;2.20;;
23470;SDS011;11908;50.806;4.424;2022-11-25T11:20:52;9.02;;;2.55;;
23470;SDS011;11908;50.806;4.424;2022-11-25T11:23:19;10.80;;;2.78;;
23470;SDS011;11908;50.806;4.424;2022-11-25T11:26:05;5.30;;;2.10;;
23470;SDS011;11908;50.806;4.424;2022-11-25T11:31:01;9.95;;;2.42;;
23470;SDS011;11908;50.806;4.424;2022-11-25T11:33:32;7.35;;;2.45;;
23470;SDS011;11908;50.806;4.424;2022-11-25T11:42:04;11.38;;;2.47;;
23470;SDS011;11908;50.806;4.424;2022-11-25T11:45:03;6.95;;;2.70;;
23470;SDS011;11908;50.806;4.424;2022-11-25T11:47:56;11.43;;;2.88;;
23470;SDS011;11908;50.806;4.424;2022-11-25T11:53:29;12.93;;;2.85;;
23470;SDS011;11908;50.806;4.424;2022-11-25T11:56:05;6.45;;;2.45;;
23470;SDS011;11908;50.806;4.424;2022-11-25T12:04:14;9.25;;;2.20;;
23470;SDS011;11908;50.806;4.424;2022-11-25T12:09:42;10.18;;;2.65;;
23470;SDS011;11908;50.806;4.424;2022-11-25T12:12:17;8.23;;;2.25;;
23470;SDS011;11908;50.806;4.424;2022-11-25T12:14:48;15.30;;;3.28;;
23470;SDS011;11908;50.806;4.424;2022-11-25T12:17:30;13.85;;;3.30;;
23470;SDS011;11908;50.806;4.424;2022-11-25T12:23:05;11.10;;;2.55;;
23470;SDS011;11908;50.806;4.424;2022-11-25T12:25:39;14.93;;;2.97;;
23470;SDS011;11908;50.806;4.424;2022-11-25T12:28:17;11.23;;;2.50;;
23470;SDS011;11908;50.806;4.424;2022-11-25T12:34:01;9.18;;;2.92;;
23470;SDS011;11908;50.806;4.424;2022-11-25T12:36:38;10.93;;;2.72;;
23470;SDS011;11908;50.806;4.424;2022-11-25T12:41:41;17.15;;;3.42;;
23470;SDS011;11908;50.806;4.424;2022-11-25T12:46:45;10.00;;;3.20;;
23470;SDS011;11908;50.806;4.424;2022-11-25T12:49:46;18.15;;;3.15;;
23470;SDS011;11908;50.806;4.424;2022-11-25T13:00:21;13.88;;;3.05;;
23470;SDS011;11908;50.806;4.424;2022-11-25T13:06:04;15.43;;;3.65;;
23470;SDS011;11908;50.806;4.424;2022-11-25T13:14:27;12.20;;;3.38;;
23470;SDS011;11908;50.806;4.424;2022-11-25T13:17:13;17.88;;;3.72;;
23470;SDS011;11908;50.806;4.424;2022-11-25T13:19:40;20.15;;;3.47;;
23470;SDS011;11908;50.806;4.424;2022-11-25T13:24:47;16.17;;;3.05;;
23470;SDS011;11908;50.806;4.424;2022-11-25T13:27:55;17.42;;;3.65;;
23470;SDS011;11908;50.806;4.424;2022-11-25T13:32:56;15.02;;;3.35;;
23470;SDS011;11908;50.806;4.424;2022-11-25T13:37:50;15.23;;;3.28;;
23470;SDS011;11908;50.806;4.424;2022-11-25T13:40:20;14.73;;;3.65;;
23470;SDS011;11908;50.806;4.424;2022-11-25T13:42:57;16.92;;;3.90;;
23470;SDS011;11908;50.806;4.424;2022-11-25T13:48:03;13.73;;;4.20;;
23470;SDS011;11908;50.806;4.424;2022-11-25T13:50:35;17.67;;;3.83;;
23470;SDS011;11908;50.806;4.424;2022-11-25T13:53:22;14.75;;;3.05;;
23470;SDS011;11908;50.806;4.424;2022-11-25T13:55:48;15.98;;;3.53;;
23470;SDS011;11908;50.806;4.424;2022-11-25T13:58:17;14.85;;;2.97;;
23470;SDS011;11908;50.806;4.424;2022-11-25T14:08:29;15.82;;;2.85;;
23470;SDS011;11908;50.806;4.424;2022-11-25T14:27:01;20.67;;;3.88;;
23470;SDS011;11908;50.806;4.424;2022-11-25T14:32:03;21.47;;;5.03;;
23470;SDS011;11908;50.806;4.424;2022-11-25T14:34:47;17.85;;;4.07;;
23470;SDS011;11908;50.806;4.424;2022-11-25T14:37:19;23.05;;;4.85;;
23470;SDS011;11908;50.806;4.424;2022-11-25T14:39:54;16.77;;;4.85;;
23470;SDS011;11908;50.806;4.424;2022-11-25T14:42:21;20.98;;;4.13;;
23470;SDS011;11908;50.806;4.424;2022-11-25T14:44:52;19.85;;;4.90;;
23470;SDS011;11908;50.806;4.424;2022-11-25T14:47:26;17.70;;;4.07;;
23470;SDS011;11908;50.806;4.424;2022-11-25T14:49:55;13.48;;;3.70;;
23470;SDS011;11908;50.806;4.424;2022-11-25T14:52:31;15.48;;;3.65;;
23470;SDS011;11908;50.806;4.424;2022-11-25T14:54:59;13.98;;;3.45;;
23470;SDS011;11908;50.806;4.424;2022-11-25T14:57:26;14.57;;;3.35;;
23470;SDS011;11908;50.806;4.424;2022-11-25T14:59:55;16.08;;;3.67;;
23470;SDS011;11908;50.806;4.424;2022-11-25T15:02:27;19.52;;;3.83;;
23470;SDS011;11908;50.806;4.424;2022-11-25T15:07:42;21.45;;;4.75;;
23470;SDS011;11908;50.806;4.424;2022-11-25T15:10:33;22.45;;;4.50;;
23470;SDS011;11908;50.806;4.424;2022-11-25T15:16:09;21.10;;;4.47;;
23470;SDS011;11908;50.806;4.424;2022-11-25T15:21:22;20.05;;;4.38;;
23470;SDS011;11908;50.806;4.424;2022-11-25T15:23:53;17.80;;;4.22;;
23470;SDS011;11908;50.806;4.424;2022-11-25T15:26:20;23.95;;;5.47;;
23470;SDS011;11908;50.806;4.424;2022-11-25T15:28:55;20.30;;;4.93;;
23470;SDS011;11908;50.806;4.424;2022-11-25T15:31:30;20.73;;;5.07;;
23470;SDS011;11908;50.806;4.424;2022-11-25T15:34:01;17.25;;;4.65;;
23470;SDS011;11908;50.806;4.424;2022-11-25T15:36:28;20.52;;;4.50;;
23470;SDS011;11908;50.806;4.424;2022-11-25T15:38:54;16.40;;;4.35;;
23470;SDS011;11908;50.806;4.424;2022-11-25T15:44:37;19.83;;;4.40;;
23470;SDS011;11908;50.806;4.424;2022-11-25T15:47:16;23.63;;;4.60;;
23470;SDS011;11908;50.806;4.424;2022-11-25T15:49:45;21.02;;;4.97;;
23470;SDS011;11908;50.806;4.424;2022-11-25T15:52:22;26.30;;;5.00;;
23470;SDS011;11908;50.806;4.424;2022-11-25T15:54:50;23.38;;;5.32;;
23470;SDS011;11908;50.806;4.424;2022-11-25T15:57:25;23.23;;;4.97;;
23470;SDS011;11908;50.806;4.424;2022-11-25T16:00:17;22.35;;;5.00;;
23470;SDS011;11908;50.806;4.424;2022-11-25T16:07:39;20.33;;;5.57;;
23470;SDS011;11908;50.806;4.424;2022-11-25T16:13:23;25.77;;;6.35;;
23470;SDS011;11908;50.806;4.424;2022-11-25T16:21:28;29.65;;;6.10;;
23470;SDS011;11908;50.806;4.424;2022-11-25T16:29:19;28.92;;;6.53;;
23470;SDS011;11908;50.806;4.424;2022-11-25T16:32:09;20.65;;;4.75;;
23470;SDS011;11908;50.806;4.424;2022-11-25T16:34:38;29.02;;;5.90;;
23470;SDS011;11908;50.806;4.424;2022-11-25T16:37:04;24.90;;;6.20;;
23470;SDS011;11908;50.806;4.424;2022-11-25T16:39:29;22.58;;;6.22;;
23470;SDS011;11908;50.806;4.424;2022-11-25T16:41:57;26.50;;;6.50;;
23470;SDS011;11908;50.806;4.424;2022-11-25T16:44:27;38.60;;;8.40;;
23470;SDS011;11908;50.806;4.424;2022-11-25T16:46:53;28.38;;;7.43;;
23470;SDS011;11908;50.806;4.424;2022-11-25T16:49:20;23.73;;;8.20;;
23470;SDS011;11908;50.806;4.424;2022-11-25T16:51:46;36.97;;;8.80;;
23470;SDS011;11908;50.806;4.424;2022-11-25T16:54:14;36.65;;;8.25;;
23470;SDS011;11908;50.806;4.424;2022-11-25T16:56:42;35.67;;;11.45;;
23470;SDS011;11908;50.806;4.424;2022-11-25T16:59:09;32.58;;;11.82;;
23470;SDS011;11908;50.806;4.424;2022-11-25T17:01:41;35.38;;;11.48;;
23470;SDS011;11908;50.806;4.424;2022-11-25T17:04:09;32.83;;;12.00;;
23470;SDS011;11908;50.806;4.424;2022-11-25T17:06:36;35.50;;;11.57;;
23470;SDS011;11908;50.806;4.424;2022-11-25T17:09:01;27.17;;;10.27;;
23470;SDS011;11908;50.806;4.424;2022-11-25T17:11:28;37.53;;;10.85;;
23470;SDS011;11908;50.806;4.424;2022-11-25T17:16:51;26.13;;;10.52;;
23470;SDS011;11908;50.806;4.424;2022-11-25T17:19:17;39.83;;;10.02;;
23470;SDS011;11908;50.806;4.424;2022-11-25T17:21:43;28.70;;;9.55;;
23470;SDS011;11908;50.806;4.424;2022-11-25T17:24:11;30.48;;;9.45;;
23470;SDS011;11908;50.806;4.424;2022-11-25T17:26:43;28.83;;;8.95;;
23470;SDS011;11908;50.806;4.424;2022-11-25T17:29:13;29.55;;;9.35;;
23470;SDS011;11908;50.806;4.424;2022-11-25T17:31:44;29.33;;;9.38;;
23470;SDS011;11908;50.806;4.424;2022-11-25T17:34:12;29.67;;;10.13;;